Venedocia, OH (45894)

1:47 PM EST on February 10, 2016 (GMT -0500)
N1ICS - Ridge Township, OH | | Change Station
CLOSE
Current Station
Personal Weather Station
Location: Van Wert, OH
Elevation: 784 ft
Nearby Weather Stations

Elev 784 ft 40.85 °N, 84.48 °W | Updated 2 minutes ago

Overcast
Overcast
24.3 °F
Feels Like 11 °F
N
17.7
Wind Variable Wind from WSW
Gusts 21.0 mph

Today
High -- | Low -- °F
--% Chance of Precip.
Yesterday
High -- | Low -- °F
Precip. -- in
Pressure 29.95 in
Visibility 7.0 miles
Clouds Overcast 1800 ft
Windchill 11 °F
Dew Point 6 °F
Humidity 46%
Rainfall 0.24 in
Snow Depth Not available.
7:38 AM 6:06 PM
Waxing Crescent, 6% visible
METAR KAOH 101753Z AUTO 27017G22KT 7SM -SN OVC018 M07/M11 A2990 RMK AO2 SNB1654 SLP141 P0000 60000 T10721106 11072 21094 50007
Pressure 29.95 in
Visibility 7.0 miles
Clouds Overcast 1800 ft
Windchill 11 °F
Dew Point 6 °F
Humidity 46%
Rainfall 0.24 in
Snow Depth Not available.
7:38 AM 6:06 PM
Waxing Crescent, 6% visible
METAR KAOH 101753Z AUTO 27017G22KT 7SM -SN OVC018 M07/M11 A2990 RMK AO2 SNB1654 SLP141 P0000 60000 T10721106 11072 21094 50007

10-Day Weather Forecast

Almanac

Astronomy

Feb. 10, 2016 Rise Set
Actual Time
Civil Twilight
Nautical Twilight
Astronomical Twilight
Moon
Length of Visible Light
Length of Day
Tomorrow will be .
, % of the Moon is Illuminated

Today's Extremes

State Highs State Lows

Community

WunderPhotos

Upload Photos

1,891,915 photos uploaded!

WunderBlog® & News

Nearby

Air Quality

  Air Quality AQ Index Pollutant
Not available.

Snow Depth

Station Depth Elevation

Earthquake Activity

City Distance Mag. Time & Date
Minimum magnitude displayed is 2.5.

Coastal Water Temperatures

Place Temperature

Stations

Nearby Weather Stations

Station Location Temp. Windchill Dew Point Humidity Wind Precip. Elev Updated Type
                   

Watches & Warnings

There are currently no watches in effect.